createdAt,value
2018-06-04T00:00:15.725Z,18.63
2018-06-04T00:05:19.553Z,20.20
2018-06-04T00:10:23.394Z,19.17
2018-06-04T00:15:27.889Z,19.47
2018-06-04T00:20:32.056Z,19.50
2018-06-04T00:25:35.930Z,19.70
2018-06-04T00:30:40.014Z,21.63
2018-06-04T00:35:43.854Z,21.50
2018-06-04T00:40:47.694Z,22.57
2018-06-04T00:45:51.541Z,21.43
2018-06-04T00:50:55.382Z,20.67
2018-06-04T00:56:16.875Z,20.60
2018-06-04T01:01:20.962Z,21.47
2018-06-04T01:06:25.071Z,23.50
2018-06-04T01:11:29.157Z,23.00
2018-06-04T01:16:33.246Z,22.87
2018-06-04T01:21:37.151Z,22.62
2018-06-04T01:26:41.264Z,22.63
2018-06-04T01:31:45.089Z,22.23
2018-06-04T01:36:48.925Z,22.77
2018-06-04T01:41:53.027Z,24.30
2018-06-04T01:46:57.114Z,22.20
2018-06-04T01:52:01.219Z,21.10
2018-06-04T01:57:05.047Z,21.63
2018-06-04T02:02:08.925Z,21.13
2018-06-04T02:07:12.769Z,20.77
2018-06-04T02:12:16.879Z,22.13
2018-06-04T02:17:20.961Z,21.83
2018-06-04T02:22:25.051Z,22.20
2018-06-04T02:27:29.006Z,21.20
2018-06-04T02:32:32.846Z,21.43
2018-06-04T02:37:36.757Z,22.50
2018-06-04T02:42:41.438Z,21.07
2018-06-04T02:47:45.538Z,21.97
2018-06-04T02:52:49.363Z,22.17
2018-06-04T02:57:53.478Z,22.70
2018-06-04T03:02:57.321Z,20.93
2018-06-04T03:08:01.455Z,21.47
2018-06-04T03:13:05.631Z,21.33
2018-06-04T03:18:09.466Z,20.57
2018-06-04T03:23:13.293Z,21.37
2018-06-04T03:28:17.233Z,21.93
2018-06-04T03:33:21.070Z,22.22
2018-06-04T03:38:24.891Z,21.20
2018-06-04T03:43:28.970Z,22.03
2018-06-04T03:48:33.063Z,22.33
2018-06-04T03:53:37.155Z,22.13
2018-06-04T03:58:40.993Z,22.40
2018-06-04T04:03:44.819Z,22.87
2018-06-04T04:08:48.903Z,22.63
2018-06-04T04:13:52.963Z,21.40
2018-06-04T04:18:56.782Z,21.10
2018-06-04T04:24:00.601Z,22.67
2018-06-04T04:29:04.460Z,22.13
2018-06-04T04:34:08.275Z,22.23
2018-06-04T04:39:12.098Z,22.97
2018-06-04T04:44:15.937Z,23.30
2018-06-04T04:49:19.781Z,22.57
2018-06-04T04:54:23.869Z,22.10
2018-06-04T04:59:27.735Z,21.97
2018-06-04T05:04:31.675Z,23.40
2018-06-04T05:09:35.665Z,22.57
2018-06-04T05:14:39.510Z,22.00
2018-06-04T05:19:43.361Z,21.90
2018-06-04T05:24:47.198Z,22.70
2018-06-04T05:29:51.077Z,22.13
2018-06-04T05:34:54.954Z,20.60
2018-06-04T05:39:58.773Z,18.90
2018-06-04T05:45:05.875Z,18.00
2018-06-04T05:50:09.681Z,17.93
2018-06-04T05:55:13.492Z,17.53
2018-06-04T06:00:17.315Z,18.85
2018-06-04T06:05:21.125Z,16.20
2018-06-04T06:10:24.946Z,16.27
2018-06-04T06:15:28.755Z,16.07
2018-06-04T06:20:32.567Z,16.07
2018-06-04T06:25:36.637Z,15.67
2018-06-04T06:30:40.482Z,14.53
2018-06-04T06:35:44.342Z,16.00
2018-06-04T06:40:48.194Z,14.40
2018-06-04T06:45:52.055Z,16.63
2018-06-04T06:50:56.192Z,15.23
2018-06-04T06:56:00.266Z,14.57
2018-06-04T07:01:04.387Z,14.53
2018-06-04T07:06:08.241Z,14.90
2018-06-04T07:11:12.110Z,14.13
2018-06-04T07:16:15.978Z,16.13
2018-06-04T07:21:19.823Z,12.73
2018-06-04T07:26:23.930Z,12.70
2018-06-04T07:31:27.770Z,13.23
2018-06-04T07:36:31.634Z,12.60
2018-06-04T07:41:35.723Z,12.27
2018-06-04T07:46:45.978Z,13.30
2018-06-04T07:51:50.200Z,13.10
2018-06-04T07:56:54.035Z,11.80
2018-06-04T08:01:57.889Z,13.30
2018-06-04T08:07:01.726Z,12.37
2018-06-04T08:12:05.992Z,12.63
2018-06-04T08:17:09.831Z,11.17
2018-06-04T08:22:13.658Z,12.47
2018-06-04T08:27:17.735Z,11.23
2018-06-04T08:32:21.583Z,10.78
2018-06-04T08:37:25.879Z,10.03
2018-06-04T08:42:29.701Z,9.45
2018-06-04T08:47:33.549Z,10.28
2018-06-04T08:52:37.370Z,9.40
2018-06-04T08:57:41.193Z,9.43
2018-06-04T09:02:45.000Z,8.33
2018-06-04T09:07:48.807Z,9.00
2018-06-04T09:12:52.865Z,8.95
2018-06-04T09:17:56.937Z,8.70
2018-06-04T09:23:01.020Z,10.18
2018-06-04T09:28:05.131Z,8.73
2018-06-04T09:33:08.959Z,8.88
2018-06-04T09:38:12.793Z,8.53
2018-06-04T09:43:16.970Z,8.08
2018-06-04T09:48:21.087Z,7.30
2018-06-04T09:53:24.938Z,8.25
2018-06-04T09:58:28.771Z,7.75
2018-06-04T10:03:32.590Z,8.03
2018-06-04T10:08:36.427Z,8.43
2018-06-04T10:13:40.238Z,8.53
2018-06-04T10:18:44.062Z,8.93
2018-06-04T10:23:47.910Z,8.17
2018-06-04T10:28:51.742Z,7.83
2018-06-04T10:33:55.831Z,7.70
2018-06-04T10:38:59.939Z,7.40
2018-06-04T10:44:04.322Z,8.03
2018-06-04T10:49:08.173Z,8.23
2018-06-04T10:54:12.822Z,7.50
2018-06-04T10:59:16.697Z,7.17
2018-06-04T11:04:20.594Z,7.57
2018-06-04T11:09:24.703Z,6.87
2018-06-04T11:14:28.542Z,6.63
2018-06-04T11:19:32.376Z,6.70
2018-06-04T11:24:36.475Z,6.27
2018-06-04T11:29:40.568Z,6.37
2018-06-04T11:34:44.407Z,6.77
2018-06-04T11:39:48.772Z,6.80
2018-06-04T11:44:52.606Z,6.57
2018-06-04T11:49:56.434Z,6.70
2018-06-04T11:55:00.577Z,7.20
2018-06-04T12:00:04.668Z,5.63
2018-06-04T12:05:10.995Z,6.90
2018-06-04T12:10:14.841Z,5.80
2018-06-04T12:15:18.734Z,6.00
2018-06-04T12:20:22.816Z,6.40
2018-06-04T12:25:26.729Z,6.00
2018-06-04T12:30:30.561Z,5.80
2018-06-04T12:35:35.194Z,5.53
2018-06-04T12:40:39.029Z,5.70
2018-06-04T12:45:42.864Z,5.23
2018-06-04T12:50:46.956Z,5.90
2018-06-04T12:55:50.780Z,5.53
2018-06-04T13:00:54.843Z,5.20
2018-06-04T13:05:58.668Z,5.00
2018-06-04T13:11:02.971Z,5.70
2018-06-04T13:16:07.602Z,5.50
2018-06-04T13:21:11.677Z,5.30
2018-06-04T13:26:15.482Z,6.03
2018-06-04T13:31:19.582Z,5.73
2018-06-04T13:36:23.406Z,5.77
2018-06-04T13:41:27.492Z,6.13
2018-06-04T13:46:31.601Z,5.10
2018-06-04T13:51:35.678Z,5.70
2018-06-04T13:56:39.497Z,5.57
2018-06-04T14:01:43.349Z,5.63
2018-06-04T14:06:47.193Z,4.90
2018-06-04T14:11:51.098Z,4.90
2018-06-04T14:16:55.211Z,4.73
2018-06-04T14:21:59.303Z,4.60
2018-06-04T14:27:03.198Z,4.40
2018-06-04T14:32:07.489Z,4.37
2018-06-04T14:37:11.334Z,5.10
2018-06-04T14:42:15.188Z,4.87
2018-06-04T14:47:19.084Z,5.37
2018-06-04T14:52:23.245Z,5.23
2018-06-04T14:57:27.430Z,5.00
2018-06-04T15:02:31.275Z,4.93
2018-06-04T15:07:35.206Z,4.77
2018-06-04T15:12:39.294Z,4.87
2018-06-04T15:17:43.588Z,5.37
2018-06-04T15:22:47.667Z,4.70
2018-06-04T15:27:51.500Z,5.03
2018-06-04T15:32:55.609Z,4.97
2018-06-04T15:37:59.994Z,4.30
2018-06-04T15:43:04.197Z,4.62
2018-06-04T15:48:08.035Z,4.70
2018-06-04T15:53:11.859Z,4.97
2018-06-04T15:58:15.722Z,5.07
2018-06-04T16:03:19.639Z,4.90
2018-06-04T16:08:23.469Z,4.87
2018-06-04T16:13:27.590Z,4.53
2018-06-04T16:18:31.702Z,5.37
2018-06-04T16:23:35.784Z,4.43
2018-06-04T16:28:39.713Z,4.60
2018-06-04T16:33:43.556Z,5.00
2018-06-04T16:38:47.457Z,4.80
2018-06-04T16:43:51.613Z,4.80
2018-06-04T16:48:55.472Z,5.77
2018-06-04T16:53:59.380Z,5.60
2018-06-04T16:59:03.233Z,6.07
2018-06-04T17:04:07.269Z,6.10
2018-06-04T17:09:11.094Z,4.90
2018-06-04T17:14:14.930Z,5.40
2018-06-04T17:19:18.885Z,5.40
2018-06-04T17:24:23.004Z,5.90
2018-06-04T17:29:27.084Z,5.92
2018-06-04T17:34:30.908Z,7.07
2018-06-04T17:39:35.221Z,7.00
2018-06-04T17:44:39.298Z,7.30
2018-06-04T17:49:43.113Z,7.57
2018-06-04T17:54:47.208Z,7.30
2018-06-04T17:59:51.042Z,8.17
2018-06-04T18:04:54.879Z,8.50
2018-06-04T18:09:58.926Z,8.50
2018-06-04T18:15:02.842Z,9.00
2018-06-04T18:20:07.015Z,10.43
2018-06-04T18:25:10.862Z,12.07
2018-06-04T18:30:14.823Z,11.87
2018-06-04T18:35:18.653Z,12.97
2018-06-04T18:40:22.514Z,12.82
2018-06-04T18:45:26.482Z,14.47
2018-06-04T18:50:30.389Z,15.03
2018-06-04T18:55:34.285Z,15.00
2018-06-04T19:00:38.415Z,15.20
2018-06-04T19:05:42.274Z,14.37
2018-06-04T19:10:46.134Z,15.50
2018-06-04T19:15:50.269Z,14.33
2018-06-04T19:20:54.144Z,13.97
2018-06-04T19:25:58.316Z,13.73
2018-06-04T19:31:02.777Z,15.30
2018-06-04T19:36:06.617Z,15.33
2018-06-04T19:41:10.442Z,15.37
2018-06-04T19:46:14.767Z,14.33
2018-06-04T19:51:18.625Z,14.50
2018-06-04T19:56:22.738Z,15.53
2018-06-04T20:01:26.868Z,16.20
2018-06-04T20:06:30.737Z,15.97
2018-06-04T20:11:34.580Z,16.90
2018-06-04T20:16:38.435Z,16.17
2018-06-04T20:21:42.599Z,17.20
2018-06-04T20:26:46.745Z,17.13
2018-06-04T20:31:50.857Z,17.00
2018-06-04T20:36:54.725Z,16.70
2018-06-04T20:41:58.595Z,17.00
2018-06-04T20:47:02.720Z,18.40
2018-06-04T20:52:06.679Z,16.93
2018-06-04T20:57:10.855Z,17.97
2018-06-04T21:02:14.685Z,16.43
2018-06-04T21:07:18.549Z,16.90
2018-06-04T21:12:22.396Z,17.10
2018-06-04T21:17:26.493Z,15.32
2018-06-04T21:22:30.650Z,17.13
2018-06-04T21:27:34.746Z,16.97
2018-06-04T21:32:38.816Z,17.70
2018-06-04T21:37:42.650Z,17.47
2018-06-04T21:42:47.541Z,17.13
2018-06-04T21:47:51.493Z,16.27
2018-06-04T21:52:55.329Z,17.15
2018-06-04T21:57:59.515Z,17.70
2018-06-04T22:03:03.382Z,18.70
2018-06-04T22:08:07.472Z,18.17
2018-06-04T22:13:11.335Z,18.63
2018-06-04T22:18:15.196Z,17.77
2018-06-04T22:23:19.190Z,18.73
2018-06-04T22:28:23.351Z,16.67
2018-06-04T22:33:27.226Z,15.40
2018-06-04T22:38:31.055Z,16.73
2018-06-04T22:43:34.901Z,16.47
2018-06-04T22:48:38.735Z,16.73
2018-06-04T22:53:42.542Z,17.43
2018-06-04T22:58:46.373Z,16.17
2018-06-04T23:03:50.294Z,17.63
2018-06-04T23:08:54.160Z,16.40
2018-06-04T23:13:58.023Z,18.27
2018-06-04T23:19:02.166Z,17.80
2018-06-04T23:24:06.252Z,15.50
2018-06-04T23:29:10.375Z,16.07
2018-06-04T23:34:14.230Z,17.40
2018-06-04T23:39:18.070Z,17.07
2018-06-04T23:44:22.017Z,17.80
2018-06-04T23:49:26.862Z,17.40
2018-06-04T23:54:30.975Z,17.77
2018-06-04T23:59:35.134Z,18.03
